Hlavní strana
METAR-TAF:

METAR-TAF

Letiště :

Rowan County Airport

Salisbury, Severní Karolína, Spojené státy americké

zeměpisná šířka: 35-39N, zeměpisná délka: 080-31W, výška: 236 m

Aktuální stav počasí

Zpráva byla vytvořena před 26 minutami, v 00:35 UTC
Jihojihovýchodní vítr 6 kt
Teplota 22°C
Vlhkost vzduchu 94%
Tlak 1018 hPa
Viditelnost: 16.1 km
Polojasno ve výšce 1000 ft
Polojasno ve výšce 12000 ft

METAR: KRUQ 300035Z AUTO 16006KT 10SM SCT010 SCT120 22/21 A3005 RMK AO2 T02200205

Čas: 21:01 (01:01 UTC)


TAF: chybějící

Stav a předpovědi počasí z více než 4 000 letišť (zprávy METAR a TAF).

Červené a žluté tečky na mapě představují dostupné meteorologické stanice.

Když kurzor umístíte na tečku, zobrazí se název stanice.

Pak kliknutím zobrazíte stav a předpověď počasí.

Chcete-li změnit mapu, kliknutím na zelené tlačítko se znaménkem +mapu přiblížíte, kliknutím na zelené tlačítko se znaménkem – mapu oddálíte a kliknutím na zelené šipky přejdete na sousední mapy.


METAR-TAF: